Time;durP1;ratioP1;P1;durP2;ratioP2;P2;SDS_P1;SDS_P2;PMS_P1;PMS_P2;Temp;Humidity;BMP_temperature;BMP_pressure;BME280_temperature;BME280_humidity;BME280_pressure;Samples;Min_cycle;Max_cycle;Signal;HPM_P1;HPM_P2
2022/06/24 00:02:13;;;;;;;3.65;3.05;;;16.60;99.90;;;;;;5173356;28;20193;-62
2022/06/24 00:04:57;;;;;;;4.55;2.95;;;16.60;99.90;;;;;;5168104;28;20045;-58
2022/06/24 00:07:35;;;;;;;3.80;3.08;;;16.60;99.90;;;;;;5173100;28;20042;-60
2022/06/24 00:10:15;;;;;;;5.82;3.00;;;16.60;99.90;;;;;;5168991;28;20046;-62
2022/06/24 00:12:54;;;;;;;4.32;3.40;;;16.60;99.90;;;;;;5159701;28;20048;-59
2022/06/24 00:15:32;;;;;;;3.47;3.13;;;16.50;99.90;;;;;;5157948;28;20041;-59
2022/06/24 00:18:15;;;;;;;3.83;3.08;;;16.50;99.90;;;;;;5173202;28;20039;-60
2022/06/24 00:20:53;;;;;;;6.25;3.40;;;16.40;99.90;;;;;;5158132;28;20040;-61
2022/06/24 00:23:24;;;;;;;3.30;3.00;;;16.40;99.90;;;;;;5185085;28;20052;-59
2022/06/24 00:25:56;;;;;;;4.18;3.63;;;16.30;99.90;;;;;;5179038;28;20365;-61
2022/06/24 00:28:27;;;;;;;4.10;2.95;;;16.30;99.90;;;;;;5193915;28;20208;-61
2022/06/24 00:31:03;;;;;;;3.65;3.20;;;16.20;99.90;;;;;;5155103;28;20358;-62
2022/06/24 00:33:46;;;;;;;4.53;3.58;;;16.20;99.90;;;;;;5173240;28;20038;-61
2022/06/24 00:36:23;;;;;;;4.50;3.47;;;16.20;99.90;;;;;;5180102;28;20044;-61
2022/06/24 00:38:59;;;;;;;5.18;3.30;;;16.20;99.90;;;;;;5172754;28;20084;-60
2022/06/24 00:41:31;;;;;;;3.42;2.90;;;16.10;99.90;;;;;;5158479;28;20022;-58
2022/06/24 00:44:08;;;;;;;3.85;3.40;;;16.10;99.90;;;;;;5172684;28;20418;-60
2022/06/24 00:46:41;;;;;;;4.47;3.22;;;16.00;99.90;;;;;;5170997;28;20053;-60
2022/06/24 00:49:24;;;;;;;4.07;3.60;;;16.00;99.90;;;;;;5172603;28;20207;-60
2022/06/24 00:51:57;;;;;;;3.72;3.15;;;15.90;99.90;;;;;;5156945;28;20042;-60
2022/06/24 00:54:29;;;;;;;3.33;2.92;;;15.90;99.90;;;;;;5193469;28;20068;-61
2022/06/24 00:57:09;;;;;;;3.97;3.20;;;15.80;99.90;;;;;;5193057;28;20770;-61
2022/06/24 00:59:43;;;;;;;5.15;4.22;;;15.70;99.90;;;;;;5156945;28;20437;-62
2022/06/24 01:02:23;;;;;;;4.97;4.05;;;15.70;99.90;;;;;;5151920;28;20269;-60
2022/06/24 01:05:05;;;;;;;5.10;4.35;;;15.70;99.90;;;;;;5155146;28;20215;-59
2022/06/24 01:07:41;;;;;;;4.38;3.97;;;15.60;99.90;;;;;;5170808;28;20042;-61
2022/06/24 01:10:20;;;;;;;5.07;3.72;;;15.60;99.90;;;;;;5172710;28;20057;-61
2022/06/24 01:12:57;;;;;;;5.07;4.00;;;15.60;99.90;;;;;;5155591;28;20043;-60
2022/06/24 01:15:35;;;;;;;5.35;4.13;;;15.60;99.90;;;;;;5157020;28;20027;-59
2022/06/24 01:18:09;;;;;;;4.35;3.88;;;15.60;99.90;;;;;;5172436;28;20250;-60
2022/06/24 01:20:41;;;;;;;5.45;4.35;;;15.60;99.90;;;;;;5172673;28;20343;-60
2022/06/24 01:23:24;;;;;;;4.78;4.05;;;15.60;99.90;;;;;;5182723;28;20037;-63
2022/06/24 01:26:00;;;;;;;8.13;3.72;;;15.60;99.90;;;;;;5188188;28;20033;-61
2022/06/24 01:28:36;;;;;;;4.38;3.85;;;15.60;99.90;;;;;;5171207;28;20030;-60
2022/06/24 01:31:12;;;;;;;4.10;3.70;;;15.60;99.90;;;;;;5169276;28;20044;-62
2022/06/24 01:33:43;;;;;;;5.15;3.70;;;15.60;99.90;;;;;;5171842;28;20022;-61
2022/06/24 01:36:20;;;;;;;5.63;4.15;;;15.70;99.90;;;;;;5183128;28;20030;-60
2022/06/24 01:38:53;;;;;;;4.35;3.80;;;15.70;99.90;;;;;;5176699;28;20040;-62
2022/06/24 01:41:29;;;;;;;4.35;3.40;;;15.60;99.90;;;;;;5155791;28;20042;-61
2022/06/24 01:44:01;;;;;;;4.18;3.78;;;15.60;99.90;;;;;;5156453;28;20327;-61
2022/06/24 01:46:35;;;;;;;3.78;3.25;;;15.50;99.90;;;;;;5172694;28;20370;-60
2022/06/24 01:49:09;;;;;;;5.57;4.32;;;15.40;99.90;;;;;;5156604;28;20029;-62
2022/06/24 01:51:52;;;;;;;;;;;15.30;99.90;;;;;;5170098;28;20030;-61
2022/06/24 01:54:24;;;;;;;4.00;3.63;;;15.30;99.90;;;;;;5174232;28;20308;-60
2022/06/24 01:56:58;;;;;;;4.85;3.58;;;15.30;99.90;;;;;;5170959;28;20034;-61
2022/06/24 01:59:32;;;;;;;4.80;4.13;;;15.40;99.90;;;;;;5156731;28;20044;-61
2022/06/24 02:02:04;;;;;;;5.60;3.95;;;15.40;99.90;;;;;;5156522;28;20041;-62
2022/06/24 02:04:38;;;;;;;5.55;4.03;;;15.40;99.90;;;;;;5148518;28;20370;-61
2022/06/24 02:07:12;;;;;;;6.88;3.72;;;15.40;99.90;;;;;;5185045;28;20036;-61
2022/06/24 02:15:26;;;;;;;4.80;3.83;;;15.50;99.90;;;;;;5141551;28;20041;-61
2022/06/24 02:17:57;;;;;;;6.18;4.45;;;15.50;99.90;;;;;;5155732;28;20034;-61
2022/06/24 02:20:29;;;;;;;5.38;4.18;;;15.50;99.90;;;;;;5170281;28;20034;-62
2022/06/24 02:23:09;;;;;;;6.22;4.43;;;15.50;99.90;;;;;;5180097;28;20056;-61
2022/06/24 02:25:43;;;;;;;5.00;4.50;;;15.40;99.90;;;;;;5158736;28;20465;-62
2022/06/24 02:28:20;;;;;;;5.75;4.40;;;15.40;99.90;;;;;;5154471;28;20045;-60
2022/06/24 02:30:58;;;;;;;9.63;5.03;;;15.50;99.90;;;;;;5166867;28;20053;-62
2022/06/24 02:33:33;;;;;;;5.57;4.70;;;15.40;99.90;;;;;;5136483;28;20327;-60
2022/06/24 02:36:07;;;;;;;7.68;4.53;;;15.40;99.90;;;;;;5154852;28;20056;-62
2022/06/24 02:38:39;;;;;;;6.30;4.72;;;15.30;99.90;;;;;;5177248;28;20030;-62
2022/06/24 02:41:16;;;;;;;6.57;4.90;;;15.30;99.90;;;;;;5171859;28;20039;-61
2022/06/24 02:43:47;;;;;;;6.38;4.75;;;15.30;99.90;;;;;;5155124;28;20184;-62
2022/06/24 02:46:23;;;;;;;7.43;5.38;;;15.20;99.90;;;;;;5155063;28;20026;-61
2022/06/24 02:48:55;;;;;;;5.15;4.15;;;15.20;99.90;;;;;;5144252;28;20037;-61
2022/06/24 02:51:29;;;;;;;9.20;5.03;;;15.10;99.90;;;;;;5150599;28;20035;-62
2022/06/24 02:54:01;;;;;;;6.97;5.03;;;15.00;99.90;;;;;;5148443;28;20056;-62
2022/06/24 02:56:37;;;;;;;5.72;4.18;;;15.00;99.90;;;;;;5159749;28;20040;-61
2022/06/24 02:59:09;;;;;;;4.65;4.18;;;15.00;99.90;;;;;;5160268;28;20331;-61
2022/06/24 03:01:40;;;;;;;9.18;5.05;;;15.00;99.90;;;;;;5142687;28;20042;-62
2022/06/24 03:04:17;;;;;;;7.45;4.72;;;15.00;99.90;;;;;;5149273;28;20311;-62
2022/06/24 03:06:53;;;;;;;7.18;4.93;;;15.00;99.90;;;;;;5190725;28;20032;-62
2022/06/24 03:09:25;;;;;;;5.28;4.32;;;15.10;99.90;;;;;;5160080;28;20349;-62
2022/06/24 03:12:01;;;;;;;6.60;5.50;;;15.20;99.90;;;;;;5158870;28;20026;-62
2022/06/24 03:14:43;;;;;;;7.93;4.70;;;15.10;99.90;;;;;;5159421;28;20038;-60
2022/06/24 03:17:19;;;;;;;5.85;4.53;;;15.20;99.90;;;;;;5159749;28;20242;-61
2022/06/24 03:19:53;;;;;;;7.30;4.95;;;15.20;99.90;;;;;;5158776;28;20034;-63
2022/06/24 03:22:30;;;;;;;6.15;4.78;;;15.30;99.90;;;;;;5158819;28;20030;-62
2022/06/24 03:25:09;;;;;;;7.35;4.68;;;15.40;99.90;;;;;;5155154;28;20044;-62
2022/06/24 03:27:46;;;;;;;7.50;5.30;;;15.60;99.90;;;;;;5159679;28;20030;-64
2022/06/24 03:30:22;;;;;;;6.88;4.38;;;15.70;99.90;;;;;;5188581;28;20050;-62
2022/06/24 03:32:53;;;;;;;4.90;4.10;;;15.80;99.90;;;;;;5195113;28;20262;-62
2022/06/24 03:35:28;;;;;;;7.63;4.55;;;15.90;99.90;;;;;;5189758;28;20044;-62
2022/06/24 03:38:01;;;;;;;6.20;4.35;;;16.10;99.90;;;;;;5160408;28;20045;-62
2022/06/24 03:40:40;;;;;;;6.03;4.25;;;16.30;99.90;;;;;;5157170;28;20334;-62
2022/06/24 03:43:14;;;;;;;5.22;4.68;;;16.40;99.90;;;;;;5159285;28;20044;-62
2022/06/24 03:45:48;;;;;;;6.35;4.63;;;16.50;99.90;;;;;;5174218;28;20030;-62
2022/06/24 03:48:22;;;;;;;4.97;3.88;;;16.70;99.90;;;;;;5159597;28;20422;-63
2022/06/24 03:50:56;;;;;;;5.53;4.00;;;16.70;99.90;;;;;;5158230;28;20022;-61
2022/06/24 03:53:32;;;;;;;5.93;3.97;;;16.90;99.90;;;;;;5166661;28;20036;-62
2022/06/24 03:56:13;;;;;;;5.38;3.80;;;17.10;99.90;;;;;;5172959;28;20030;-62
2022/06/24 03:58:46;;;;;;;6.80;4.50;;;17.20;99.90;;;;;;5173220;28;20335;-62
2022/06/24 04:01:24;;;;;;;4.75;3.80;;;17.50;99.90;;;;;;5157163;28;20038;-62
2022/06/24 04:03:57;;;;;;;5.28;3.95;;;17.70;99.90;;;;;;5159893;28;20032;-61
2022/06/24 04:06:29;;;;;;;5.47;4.00;;;18.00;99.90;;;;;;5181370;28;20063;-65
2022/06/24 04:09:03;;;;;;;8.13;3.70;;;18.30;99.90;;;;;;5161610;28;20053;-61
2022/06/24 04:11:35;;;;;;;7.07;4.28;;;18.50;99.90;;;;;;5137603;28;20634;-62
2022/06/24 04:14:07;;;;;;;4.78;3.78;;;18.80;99.90;;;;;;5171676;28;20383;-62
2022/06/24 04:16:39;;;;;;;4.20;3.30;;;19.00;99.90;;;;;;5173792;28;20038;-62
2022/06/24 04:19:12;;;;;;;5.60;3.60;;;19.20;99.90;;;;;;5157753;28;20105;-61
2022/06/24 04:21:46;;;;;;;4.75;3.47;;;19.30;99.90;;;;;;5157938;28;20022;-60
2022/06/24 04:24:23;;;;;;;4.47;3.45;;;19.50;99.90;;;;;;5176052;28;20037;-61
2022/06/24 04:27:03;;;;;;;4.40;3.42;;;19.60;99.90;;;;;;5169007;28;20034;-61
2022/06/24 04:29:34;;;;;;;5.88;3.40;;;19.80;99.90;;;;;;5172147;28;20327;-62
2022/06/24 04:32:16;;;;;;;5.05;3.88;;;20.00;99.90;;;;;;5157898;28;20049;-62
2022/06/24 04:34:50;;;;;;;3.60;3.30;;;20.10;99.90;;;;;;5157738;28;20045;-62
2022/06/24 04:37:22;;;;;;;7.72;4.05;;;20.20;99.90;;;;;;5190583;28;20034;-61
2022/06/24 04:39:56;;;;;;;4.50;3.75;;;20.30;99.90;;;;;;5158310;28;20042;-62
2022/06/24 04:42:30;;;;;;;3.50;3.17;;;20.40;99.90;;;;;;5158840;28;20038;-62
2022/06/24 04:45:06;;;;;;;5.10;3.13;;;20.60;99.90;;;;;;5157294;28;20278;-63
2022/06/24 04:47:40;;;;;;;4.53;3.55;;;20.70;99.90;;;;;;5135823;28;20041;-62
2022/06/24 04:50:12;;;;;;;5.63;3.28;;;20.90;99.90;;;;;;5156207;28;20323;-62
2022/06/24 04:52:44;;;;;;;6.82;3.72;;;20.90;99.90;;;;;;5170928;28;20058;-61
2022/06/24 04:55:19;;;;;;;4.63;3.00;;;21.00;99.90;;;;;;5155646;28;20034;-61
2022/06/24 04:57:52;;;;;;;4.03;2.90;;;21.20;99.90;;;;;;5171748;28;20026;-63
2022/06/24 05:00:26;;;;;;;3.47;3.17;;;21.30;99.90;;;;;;5156787;28;20028;-63
2022/06/24 05:02:57;;;;;;;4.15;3.25;;;21.50;99.90;;;;;;5181780;28;20045;-61
2022/06/24 05:05:29;;;;;;;2.67;2.47;;;21.60;99.90;;;;;;5170722;28;20060;-61
2022/06/24 05:08:00;;;;;;;4.75;3.42;;;21.80;99.90;;;;;;5169868;28;20021;-62
2022/06/24 05:10:34;;;;;;;4.13;2.90;;;22.00;99.90;;;;;;5166332;28;20022;-62
2022/06/24 05:13:09;;;;;;;6.03;2.83;;;22.10;99.90;;;;;;5154962;28;20040;-62
2022/06/24 05:15:44;;;;;;;3.55;3.25;;;22.40;99.90;;;;;;5167206;28;20034;-62
2022/06/24 05:18:16;;;;;;;3.65;2.72;;;22.20;99.90;;;;;;5164865;28;20034;-62
2022/06/24 05:20:52;;;;;;;3.13;2.83;;;22.10;99.90;;;;;;5156313;28;20030;-62
2022/06/24 05:23:29;;;;;;;2.88;2.65;;;22.20;99.90;;;;;;5179123;28;20030;-61
2022/06/24 05:26:04;;;;;;;5.13;3.10;;;22.10;99.90;;;;;;5188253;28;20036;-62
2022/06/24 05:28:40;;;;;;;;;;;22.00;99.90;;;;;;5194019;28;20200;-60
2022/06/24 05:31:17;;;;;;;7.07;3.03;;;21.90;99.90;;;;;;5178417;28;19916;-60
2022/06/24 05:33:49;;;;;;;3.33;2.97;;;21.90;99.90;;;;;;5192950;28;20303;-60
2022/06/24 05:36:20;;;;;;;4.93;2.72;;;22.00;99.90;;;;;;5184084;28;20045;-60
2022/06/24 05:38:52;;;;;;;4.22;3.30;;;22.50;99.90;;;;;;5170313;28;20036;-61
2022/06/24 05:41:29;;;;;;;7.72;2.97;;;22.80;99.90;;;;;;5171552;28;20383;-62
2022/06/24 05:44:03;;;;;;;3.72;2.83;;;23.20;99.90;;;;;;5175848;28;20030;-61
2022/06/24 05:46:38;;;;;;;;;;;23.70;99.90;;;;;;5161806;28;20049;-60
2022/06/24 05:49:10;;;;;;;2.80;2.47;;;24.00;99.90;;;;;;5176298;28;19916;-60
2022/06/24 05:51:49;;;;;;;2.92;2.45;;;24.20;99.90;;;;;;5162048;28;20334;-60
2022/06/24 05:57:12;;;;;;;2.95;2.65;;;24.30;99.90;;;;;;5174183;28;20037;-60
2022/06/24 05:59:47;;;;;;;5.20;2.88;;;24.30;99.90;;;;;;5191618;28;20026;-59
2022/06/24 06:02:20;;;;;;;;;;;24.40;99.90;;;;;;5192304;28;20034;-62
2022/06/24 06:04:53;;;;;;;4.05;3.05;;;24.90;99.90;;;;;;5182687;28;20209;-61
2022/06/24 06:07:27;;;;;;;3.15;2.72;;;24.60;99.90;;;;;;5160370;28;20208;-60
2022/06/24 06:09:59;;;;;;;4.20;3.10;;;24.50;99.90;;;;;;5179066;28;20033;-60
2022/06/24 06:12:36;;;;;;;3.40;2.97;;;24.40;99.90;;;;;;5182577;28;20326;-62
2022/06/24 06:15:10;;;;;;;3.45;3.03;;;24.50;99.90;;;;;;5155091;28;20303;-63
2022/06/24 06:17:42;;;;;;;3.70;2.85;;;24.60;99.90;;;;;;5171044;28;20019;-62
2022/06/24 06:20:14;;;;;;;5.40;3.38;;;24.30;99.90;;;;;;5172402;28;20324;-61
2022/06/24 06:22:45;;;;;;;6.68;2.97;;;24.20;99.90;;;;;;5164166;28;20038;-61
2022/06/24 06:25:17;;;;;;;3.72;2.70;;;23.90;99.90;;;;;;5174496;28;20044;-61
2022/06/24 06:27:52;;;;;;;2.95;2.45;;;23.50;99.90;;;;;;5171929;28;20030;-60
2022/06/24 06:30:29;;;;;;;4.93;2.72;;;23.70;99.90;;;;;;5166469;28;20346;-61
2022/06/24 06:33:00;;;;;;;5.97;3.33;;;24.00;99.90;;;;;;5153383;28;20046;-61
2022/06/24 06:35:34;;;;;;;6.10;2.88;;;24.20;99.90;;;;;;5155681;28;20145;-63
2022/06/24 06:38:08;;;;;;;4.37;2.40;;;24.20;99.90;;;;;;5156874;28;20030;-62
2022/06/24 06:40:43;;;;;;;4.28;2.58;;;24.30;99.90;;;;;;5155260;28;20493;-62
2022/06/24 06:43:18;;;;;;;3.03;2.50;;;24.30;99.90;;;;;;5154269;28;20034;-61
2022/06/24 06:45:52;;;;;;;;;;;24.90;99.90;;;;;;5155884;28;20026;-62
2022/06/24 06:48:24;;;;;;;3.20;2.60;;;24.90;99.90;;;;;;5172319;28;19910;-63
2022/06/24 06:51:01;;;;;;;6.75;2.92;;;25.10;99.90;;;;;;5169764;28;20038;-61
2022/06/24 06:53:33;;;;;;;2.50;2.20;;;24.90;99.90;;;;;;5164427;28;20044;-62
2022/06/24 06:56:09;;;;;;;2.40;2.05;;;25.60;99.90;;;;;;5153975;28;20112;-62
2022/06/24 06:58:41;;;;;;;2.58;2.35;;;25.30;99.90;;;;;;5156299;28;20358;-62
2022/06/24 07:01:16;;;;;;;2.28;2.08;;;25.20;99.90;;;;;;5154669;28;20045;-62
2022/06/24 07:03:47;;;;;;;2.42;2.10;;;25.90;99.90;;;;;;5154618;28;20049;-62
2022/06/24 07:06:19;;;;;;;2.88;1.80;;;27.20;99.90;;;;;;5160327;28;20293;-63
2022/06/24 07:08:56;;;;;;;2.25;2.03;;;28.00;99.90;;;;;;5155598;28;20035;-61
2022/06/24 07:11:28;;;;;;;2.30;1.95;;;27.90;99.90;;;;;;5154585;28;20358;-62
2022/06/24 07:14:00;;;;;;;2.20;1.63;;;27.90;99.90;;;;;;5153315;28;20029;-62
2022/06/24 07:16:31;;;;;;;2.63;1.90;;;28.20;99.90;;;;;;5150079;28;20446;-63
2022/06/24 07:19:03;;;;;;;2.58;1.95;;;27.90;99.90;;;;;;5164781;28;20362;-61
2022/06/24 07:21:34;;;;;;;2.05;1.38;;;28.50;99.90;;;;;;5155203;28;20031;-62
2022/06/24 07:24:06;;;;;;;2.15;1.95;;;28.90;99.90;;;;;;5177729;28;20044;-61
2022/06/24 07:26:43;;;;;;;3.17;1.88;;;28.80;99.90;;;;;;5154931;28;20026;-62
2022/06/24 07:29:26;;;;;;;2.42;1.83;;;29.30;99.90;;;;;;5155702;28;20030;-63
2022/06/24 07:31:58;;;;;;;1.92;1.52;;;29.90;99.90;;;;;;5154444;28;20219;-62
2022/06/24 07:34:30;;;;;;;2.70;1.60;;;29.10;99.90;;;;;;5166486;28;20042;-62
2022/06/24 07:37:06;;;;;;;2.63;1.80;;;29.10;99.90;;;;;;5156600;28;20534;-64
2022/06/24 07:39:43;;;;;;;2.70;2.10;;;29.40;99.90;;;;;;5155744;28;20268;-61
2022/06/24 07:42:14;;;;;;;2.10;1.88;;;29.80;99.90;;;;;;5148923;28;20045;-62
2022/06/24 07:44:47;;;;;;;1.90;1.73;;;29.60;99.90;;;;;;5150707;28;20030;-61
2022/06/24 07:47:20;;;;;;;3.80;2.08;;;29.50;99.90;;;;;;5173661;28;20061;-63
2022/06/24 07:49:52;;;;;;;1.77;1.67;;;29.50;99.90;;;;;;5148694;28;20026;-60
2022/06/24 07:52:23;;;;;;;3.35;2.22;;;29.40;99.90;;;;;;5177360;28;20038;-62
2022/06/24 07:57:46;;;;;;;2.80;1.70;;;29.70;99.90;;;;;;5191983;28;20030;-62
2022/06/24 08:00:20;;;;;;;2.15;1.95;;;30.00;99.90;;;;;;5165095;28;20247;-62
2022/06/24 08:03:01;;;;;;;1.80;1.70;;;30.00;99.90;;;;;;5170875;28;20053;-62
2022/06/24 08:05:33;;;;;;;1.60;1.45;;;29.60;99.90;;;;;;5164621;28;20052;-61
2022/06/24 08:08:05;;;;;;;4.50;1.88;;;29.80;99.90;;;;;;5168897;28;20026;-60
2022/06/24 08:10:38;;;;;;;1.90;1.73;;;30.20;99.90;;;;;;5170514;28;20048;-63
2022/06/24 08:13:14;;;;;;;2.38;1.75;;;30.20;99.90;;;;;;5158258;28;20284;-62
2022/06/24 08:15:48;;;;;;;2.20;2.00;;;30.20;99.90;;;;;;5169360;28;20304;-61
2022/06/24 08:18:20;;;;;;;2.88;2.45;;;30.20;99.90;;;;;;5173855;28;20034;-61
2022/06/24 08:20:52;;;;;;;2.72;2.20;;;30.00;99.90;;;;;;5173480;28;20141;-63
2022/06/24 08:23:23;;;;;;;2.67;2.15;;;29.70;99.90;;;;;;5185699;28;20033;-62
2022/06/24 08:25:55;;;;;;;7.80;2.60;;;29.70;99.90;;;;;;5171152;28;20042;-64
2022/06/24 08:28:26;;;;;;;2.63;2.00;;;29.30;99.90;;;;;;5164732;28;20156;-61
2022/06/24 08:31:02;;;;;;;2.70;2.50;;;28.90;99.90;;;;;;5167290;28;20046;-61
2022/06/24 08:33:33;;;;;;;2.55;2.15;;;29.00;99.90;;;;;;5172279;28;20034;-62
2022/06/24 08:36:08;;;;;;;2.28;1.90;;;29.10;99.90;;;;;;5168764;28;20353;-64
2022/06/24 08:38:40;;;;;;;1.90;1.65;;;29.50;99.90;;;;;;5168538;28;20040;-60
2022/06/24 08:41:25;;;;;;;2.67;1.98;;;29.30;99.90;;;;;;5151009;28;20038;-62
2022/06/24 08:44:02;;;;;;;1.95;1.65;;;29.50;99.90;;;;;;5171905;28;20052;-61
2022/06/24 08:46:36;;;;;;;4.55;1.98;;;29.20;99.90;;;;;;5160042;28;20031;-61
2022/06/24 08:49:10;;;;;;;2.53;1.88;;;28.90;99.90;;;;;;5153650;28;20026;-62
2022/06/24 08:51:45;;;;;;;3.20;1.65;;;28.70;99.90;;;;;;5168330;28;20331;-62
2022/06/24 08:54:20;;;;;;;3.10;2.08;;;28.50;99.90;;;;;;5192904;28;20037;-63
2022/06/24 08:56:54;;;;;;;2.00;1.80;;;28.60;99.90;;;;;;5193480;28;20044;-60
2022/06/24 08:59:33;;;;;;;1.50;1.40;;;28.10;99.90;;;;;;5177032;28;20034;-60
2022/06/24 09:02:13;;;;;;;2.38;1.60;;;28.00;99.90;;;;;;5158362;28;20034;-62
2022/06/24 09:04:53;;;;;;;1.42;1.33;;;28.10;99.90;;;;;;5161398;28;20284;-61
2022/06/24 09:07:26;;;;;;;1.65;1.55;;;28.30;99.90;;;;;;5146398;28;20316;-61
2022/06/24 09:10:12;;;;;;;1.53;1.43;;;28.40;99.90;;;;;;5169282;28;20050;-61
2022/06/24 09:12:46;;;;;;;2.85;1.75;;;28.50;99.90;;;;;;5156442;28;20268;-62
2022/06/24 09:15:17;;;;;;;;;;;28.80;99.90;;;;;;5172924;28;20038;-62
2022/06/24 09:17:49;;;;;;;2.03;1.83;;;28.60;99.90;;;;;;5172636;28;20100;-62
2022/06/24 09:20:33;;;;;;;2.00;1.60;;;28.50;99.90;;;;;;5156927;28;20033;-61
2022/06/24 09:23:13;;;;;;;1.55;1.45;;;28.40;99.90;;;;;;5179661;28;20224;-62
2022/06/24 09:25:53;;;;;;;3.35;1.60;;;28.00;99.90;;;;;;5156183;28;20038;-61
2022/06/24 09:28:28;;;;;;;1.70;1.60;;;28.30;99.90;;;;;;5141748;28;20037;-62
2022/06/24 09:31:13;;;;;;;2.58;1.60;;;28.00;99.90;;;;;;5155114;28;20045;-59
2022/06/24 09:33:49;;;;;;;2.05;1.50;;;28.10;99.90;;;;;;5165130;28;20038;-63
2022/06/24 09:36:33;;;;;;;1.85;1.67;;;28.50;99.90;;;;;;5153765;28;20043;-61
2022/06/24 09:39:21;;;;;;;2.28;1.90;;;28.60;99.90;;;;;;5140514;28;20345;-62
2022/06/24 09:41:57;;;;;;;1.90;1.70;;;28.50;99.90;;;;;;5152503;28;20311;-62
2022/06/24 09:44:46;;;;;;;2.17;1.98;;;28.90;99.90;;;;;;5160143;28;20042;-62
2022/06/24 09:47:27;;;;;;;2.17;1.60;;;28.80;99.90;;;;;;5157531;28;20042;-62
2022/06/24 09:50:04;;;;;;;1.75;1.60;;;28.60;99.90;;;;;;5170638;28;20044;-63
2022/06/24 09:52:38;;;;;;;1.88;1.50;;;28.50;99.90;;;;;;5161627;28;20044;-62
2022/06/24 09:55:13;;;;;;;1.38;1.27;;;28.80;99.90;;;;;;5172552;28;20371;-60
2022/06/24 09:57:50;;;;;;;2.17;1.90;;;28.70;99.90;;;;;;5165170;28;20039;-60
2022/06/24 10:00:42;;;;;;;1.60;1.50;;;29.10;99.90;;;;;;5158106;28;20076;-62
2022/06/24 10:03:18;;;;;;;1.88;1.30;;;29.20;99.90;;;;;;5147476;28;20339;-60
2022/06/24 10:05:52;;;;;;;1.83;1.52;;;29.40;99.90;;;;;;5145822;28;20044;-61
2022/06/24 10:08:24;;;;;;;3.05;1.58;;;29.10;99.90;;;;;;5189208;28;20106;-62
2022/06/24 10:11:11;;;;;;;2.65;1.40;;;29.70;99.90;;;;;;5177104;28;20457;-61
2022/06/24 10:13:48;;;;;;;1.70;1.60;;;29.70;99.90;;;;;;5176572;28;20032;-62
2022/06/24 10:16:25;;;;;;;2.63;2.00;;;29.80;99.90;;;;;;5177129;28;20327;-62
2022/06/24 10:19:00;;;;;;;3.40;1.30;;;29.40;99.90;;;;;;5176908;28;20026;-63
2022/06/24 10:21:35;;;;;;;2.60;1.58;;;29.90;99.90;;;;;;5159779;28;20036;-61
2022/06/24 10:24:14;;;;;;;1.98;1.75;;;30.60;99.90;;;;;;5188180;28;20334;-64
2022/06/24 10:26:55;;;;;;;1.60;1.40;;;31.30;99.90;;;;;;5175871;28;20038;-62
2022/06/24 10:29:35;;;;;;;1.42;1.33;;;30.70;99.90;;;;;;5192591;28;20038;-61
2022/06/24 10:32:11;;;;;;;1.63;1.52;;;30.90;99.90;;;;;;5176375;28;20362;-61
2022/06/24 10:34:48;;;;;;;1.50;1.40;;;31.00;99.90;;;;;;5189575;28;20049;-61
2022/06/24 10:37:29;;;;;;;1.35;1.25;;;31.30;99.90;;;;;;5179778;28;20325;-63
2022/06/24 10:40:01;;;;;;;1.50;1.30;;;31.50;99.90;;;;;;5158889;28;20522;-61
2022/06/24 10:42:33;;;;;;;4.43;2.10;;;32.10;99.90;;;;;;5169635;28;20217;-62
2022/06/24 10:45:12;;;;;;;1.80;1.45;;;31.00;99.90;;;;;;5175283;28;20037;-62
2022/06/24 10:47:43;;;;;;;1.95;1.70;;;31.10;99.90;;;;;;5191314;28;20046;-60
2022/06/24 10:50:20;;;;;;;1.40;1.30;;;31.80;99.90;;;;;;5176272;28;20044;-61
2022/06/24 10:52:58;;;;;;;1.58;1.40;;;33.00;99.90;;;;;;5195524;28;20231;-61
2022/06/24 10:55:37;;;;;;;1.50;1.40;;;33.60;99.90;;;;;;5192910;28;20345;-62
2022/06/24 10:58:14;;;;;;;4.45;1.50;;;33.40;99.90;;;;;;5175840;28;20038;-62
2022/06/24 11:00:51;;;;;;;1.58;1.48;;;33.20;99.90;;;;;;5175882;28;20030;-62
2022/06/24 11:03:45;;;;;;;2.22;1.50;;;33.40;99.90;;;;;;5157643;28;20057;-63
2022/06/24 11:06:20;;;;;;;1.85;1.67;;;33.30;99.90;;;;;;5182757;28;20334;-61
2022/06/24 11:08:54;;;;;;;2.20;1.73;;;34.40;99.90;;;;;;5175535;28;20042;-63
2022/06/24 11:11:32;;;;;;;1.83;1.67;;;33.20;99.90;;;;;;5161033;28;20034;-61
2022/06/24 11:14:27;;;;;;;1.58;1.48;;;33.90;99.90;;;;;;5176357;28;20026;-62
2022/06/24 11:17:09;;;;;;;1.58;1.48;;;34.30;99.90;;;;;;5175246;28;20034;-62
2022/06/24 11:19:43;;;;;;;1.50;1.40;;;33.60;99.90;;;;;;5196565;28;20030;-60
2022/06/24 11:22:18;;;;;;;3.45;1.88;;;33.20;99.90;;;;;;5196410;28;20356;-61
2022/06/24 11:24:54;;;;;;;1.85;1.50;;;32.90;99.90;;;;;;5182168;28;20056;-62
2022/06/24 11:27:38;;;;;;;1.58;1.48;;;33.20;99.90;;;;;;5199465;28;20180;-61
2022/06/24 11:30:14;;;;;;;1.70;1.60;;;33.20;99.90;;;;;;5196613;28;20198;-61
2022/06/24 11:33:03;;;;;;;1.70;1.40;;;33.60;99.90;;;;;;5181287;28;20041;-61
2022/06/24 11:35:34;;;;;;;2.17;1.77;;;34.50;99.90;;;;;;5190410;28;20029;-63
2022/06/24 11:38:12;;;;;;;1.48;1.38;;;34.70;99.90;;;;;;5195879;28;20042;-62
2022/06/24 11:40:46;;;;;;;2.45;1.75;;;33.90;99.90;;;;;;5196710;28;20432;-63
2022/06/24 11:43:18;;;;;;;1.80;1.70;;;33.30;99.90;;;;;;5191416;28;20219;-63
2022/06/24 11:46:00;;;;;;;4.00;1.70;;;32.50;99.90;;;;;;5194915;28;20026;-62
2022/06/24 11:48:32;;;;;;;3.22;1.73;;;32.60;99.90;;;;;;5196105;28;20042;-62
2022/06/24 11:51:03;;;;;;;1.95;1.70;;;32.50;99.90;;;;;;5192065;28;20334;-61
2022/06/24 11:53:34;;;;;;;1.45;1.35;;;33.00;99.90;;;;;;5174991;28;20036;-62
2022/06/24 11:56:06;;;;;;;3.22;1.75;;;32.80;99.90;;;;;;5183933;28;20042;-61
2022/06/24 11:58:45;;;;;;;1.98;1.80;;;32.50;99.90;;;;;;5190574;28;20202;-62
2022/06/24 12:01:17;;;;;;;2.30;1.77;;;32.50;99.90;;;;;;5190516;28;20246;-62
2022/06/24 12:03:50;;;;;;;1.75;1.55;;;31.90;99.90;;;;;;5181692;28;20064;-61
2022/06/24 12:06:24;;;;;;;1.80;1.70;;;31.50;99.90;;;;;;5195797;28;20051;-62
2022/06/24 12:09:06;;;;;;;1.70;1.60;;;32.60;99.90;;;;;;5195008;28;20306;-62
2022/06/24 12:11:41;;;;;;;1.85;1.75;;;33.20;99.90;;;;;;5178445;28;20044;-62
2022/06/24 12:14:16;;;;;;;1.60;1.50;;;35.30;99.90;;;;;;5178815;28;20044;-61
2022/06/24 12:17:07;;;;;;;2.17;1.90;;;36.40;99.90;;;;;;5171819;28;20242;-62
2022/06/24 12:20:04;;;;;;;2.28;1.95;;;36.60;99.90;;;;;;5178360;28;20030;-62
2022/06/24 12:22:40;;;;;;;1.80;1.70;;;34.90;99.90;;;;;;5178019;28;20372;-60
2022/06/24 12:25:14;;;;;;;2.90;1.65;;;36.10;99.90;;;;;;5195840;28;20038;-62
2022/06/24 12:27:49;;;;;;;1.83;1.67;;;35.60;99.90;;;;;;5194358;28;20018;-61
2022/06/24 12:30:25;;;;;;;1.70;1.60;;;35.90;99.90;;;;;;5178837;28;20039;-61
2022/06/24 12:33:00;;;;;;;2.08;1.95;;;36.00;99.90;;;;;;5170637;28;20342;-62
2022/06/24 12:35:43;;;;;;;2.50;2.00;;;36.30;99.90;;;;;;5194791;28;20329;-64
2022/06/24 12:38:15;;;;;;;2.53;2.33;;;36.50;99.90;;;;;;5193592;28;20029;-61
2022/06/24 12:40:51;;;;;;;1.88;1.60;;;34.20;99.90;;;;;;5178714;28;20029;-63
2022/06/24 12:43:33;;;;;;;2.42;1.45;;;34.00;99.90;;;;;;5180333;28;20032;-63
2022/06/24 12:46:10;;;;;;;1.67;1.58;;;34.20;99.90;;;;;;5195419;28;20029;-61
2022/06/24 12:51:46;;;;;;;4.80;1.63;;;35.50;99.90;;;;;;5190746;28;20064;-60
2022/06/24 12:54:23;;;;;;;3.13;1.80;;;35.20;99.90;;;;;;5193603;28;20044;-61
2022/06/24 12:56:59;;;;;;;3.05;1.70;;;34.30;99.90;;;;;;5184236;28;20033;-61
2022/06/24 12:59:30;;;;;;;1.75;1.55;;;34.40;99.90;;;;;;5196601;28;20057;-60
2022/06/24 13:02:12;;;;;;;4.65;2.22;;;34.70;99.90;;;;;;5196533;28;20044;-63
2022/06/24 13:04:49;;;;;;;1.80;1.50;;;33.30;99.90;;;;;;5175246;28;20353;-61
2022/06/24 13:07:25;;;;;;;2.15;1.95;;;34.30;99.90;;;;;;5191220;28;20323;-60
2022/06/24 13:10:00;;;;;;;2.47;2.00;;;33.60;99.90;;;;;;5164363;28;20036;-62
2022/06/24 13:12:34;;;;;;;2.17;1.98;;;34.80;99.90;;;;;;5195968;28;20042;-62
2022/06/24 13:15:09;;;;;;;;;;;35.00;99.90;;;;;;5198063;28;20247;-60
2022/06/24 13:17:43;;;;;;;2.40;2.17;;;34.90;99.90;;;;;;5195566;28;19915;-62
2022/06/24 13:20:24;;;;;;;2.33;1.90;;;34.50;99.90;;;;;;5196583;28;20038;-62
2022/06/24 13:23:00;;;;;;;2.80;2.10;;;34.30;99.90;;;;;;5196064;28;20056;-61
2022/06/24 13:25:34;;;;;;;2.40;2.05;;;34.20;99.90;;;;;;5196538;28;20041;-61
2022/06/24 13:28:19;;;;;;;4.10;1.75;;;33.80;99.90;;;;;;5196187;28;20042;-61
2022/06/24 13:30:52;;;;;;;3.58;2.50;;;33.00;99.90;;;;;;5197174;28;20034;-62
2022/06/24 13:33:27;;;;;;;1.92;1.83;;;32.60;99.90;;;;;;5196286;28;20275;-60
2022/06/24 13:35:58;;;;;;;2.17;1.88;;;32.70;99.90;;;;;;5180473;28;20049;-61
2022/06/24 13:38:33;;;;;;;3.50;1.50;;;31.40;99.90;;;;;;5196465;28;20037;-64
2022/06/24 13:41:07;;;;;;;3.53;1.90;;;30.80;99.90;;;;;;5176231;28;20199;-60
2022/06/24 13:43:39;;;;;;;2.75;2.00;;;30.60;99.90;;;;;;5189244;28;20030;-61
2022/06/24 13:46:15;;;;;;;3.15;1.80;;;30.50;99.90;;;;;;5180852;28;20044;-62